createdAt,value
2022-08-26T00:00:53.922Z,59.21
2022-08-26T00:03:24.356Z,59.13
2022-08-26T00:05:52.798Z,59.22
2022-08-26T00:08:23.543Z,59.33
2022-08-26T00:10:52.004Z,59.63
2022-08-26T00:13:20.041Z,59.61
2022-08-26T00:15:48.372Z,59.69
2022-08-26T00:18:22.073Z,59.87
2022-08-26T00:20:51.486Z,60.02
2022-08-26T00:23:19.571Z,60.04
2022-08-26T00:25:51.718Z,59.42
2022-08-26T00:28:20.193Z,59.54
2022-08-26T00:30:51.600Z,59.36
2022-08-26T00:33:21.032Z,59.39
2022-08-26T00:35:49.501Z,59.54
2022-08-26T00:38:21.211Z,59.78
2022-08-26T00:42:36.681Z,59.78
2022-08-26T00:45:11.681Z,60.37
2022-08-26T00:47:48.554Z,60.59
2022-08-26T00:50:20.898Z,61.04
2022-08-26T00:52:49.196Z,61.04
2022-08-26T00:55:37.718Z,61.94
2022-08-26T00:58:10.274Z,61.78
2022-08-26T01:00:38.477Z,62.46
2022-08-26T01:03:11.526Z,62.85
2022-08-26T01:05:42.173Z,62.72
2022-08-26T01:08:10.527Z,63.12
2022-08-26T01:10:38.897Z,62.66
2022-08-26T01:13:12.359Z,62.93
2022-08-26T01:15:44.606Z,62.96
2022-08-26T01:18:14.834Z,63.28
2022-08-26T01:20:57.743Z,63.58
2022-08-26T01:23:32.181Z,63.41
2022-08-26T01:26:06.499Z,63.69
2022-08-26T01:28:36.891Z,63.99
2022-08-26T01:31:08.793Z,64.31
2022-08-26T01:33:45.308Z,64.06
2022-08-26T01:36:15.936Z,64.35
2022-08-26T01:38:46.196Z,64.86
2022-08-26T01:41:19.722Z,64.85
2022-08-26T01:43:58.193Z,64.89
2022-08-26T01:46:28.108Z,64.77
2022-08-26T01:49:01.818Z,65.43
2022-08-26T01:51:31.579Z,65.37
2022-08-26T01:54:03.028Z,65.34
2022-08-26T01:56:33.350Z,65.63
2022-08-26T01:59:06.707Z,65.53
2022-08-26T02:01:35.871Z,65.57
2022-08-26T02:04:11.001Z,65.56
2022-08-26T02:06:39.923Z,65.53
2022-08-26T02:09:13.219Z,65.44
2022-08-26T02:11:43.385Z,66.00
2022-08-26T02:14:16.040Z,66.04
2022-08-26T02:16:48.452Z,65.62
2022-08-26T02:19:19.722Z,65.66
2022-08-26T02:21:51.094Z,65.00
2022-08-26T02:24:24.535Z,65.47
2022-08-26T02:26:57.497Z,65.78
2022-08-26T02:29:32.810Z,65.73
2022-08-26T02:32:03.149Z,65.79
2022-08-26T02:34:33.531Z,66.13
2022-08-26T02:37:03.899Z,66.45
2022-08-26T02:39:34.585Z,66.48
2022-08-26T02:42:06.328Z,66.94
2022-08-26T02:44:34.395Z,66.76
2022-08-26T02:47:02.978Z,67.03
2022-08-26T02:49:31.503Z,67.01
2022-08-26T02:52:01.856Z,67.61
2022-08-26T02:54:30.380Z,67.34
2022-08-26T02:56:59.684Z,67.20
2022-08-26T02:59:31.496Z,68.02
2022-08-26T03:02:01.790Z,67.33
2022-08-26T03:04:33.347Z,67.39
2022-08-26T03:07:01.772Z,67.65
2022-08-26T03:09:33.369Z,67.96
2022-08-26T03:12:03.054Z,67.49
2022-08-26T03:14:31.341Z,67.99
2022-08-26T03:16:59.526Z,68.61
2022-08-26T03:19:27.863Z,69.23
2022-08-26T03:22:00.766Z,69.56
2022-08-26T03:24:29.045Z,69.71
2022-08-26T03:26:57.676Z,69.81
2022-08-26T03:29:44.720Z,69.62
2022-08-26T03:32:17.611Z,69.65
2022-08-26T03:34:46.423Z,70.00
2022-08-26T03:37:17.361Z,70.36
2022-08-26T03:39:46.792Z,70.48
2022-08-26T03:42:17.634Z,70.59
2022-08-26T03:44:53.584Z,70.80
2022-08-26T03:47:24.067Z,70.78
2022-08-26T03:49:52.263Z,70.75
2022-08-26T03:52:20.290Z,70.70
2022-08-26T03:54:48.628Z,70.85
2022-08-26T03:57:16.664Z,70.79
2022-08-26T03:59:45.306Z,71.01
2022-08-26T04:02:17.171Z,70.56
2022-08-26T04:04:48.881Z,70.72
2022-08-26T04:07:17.529Z,71.09
2022-08-26T04:09:46.071Z,71.29
2022-08-26T04:12:14.823Z,71.46
2022-08-26T04:14:43.088Z,71.44
2022-08-26T04:17:13.500Z,71.29
2022-08-26T04:19:42.978Z,70.73
2022-08-26T04:22:11.443Z,71.19
2022-08-26T04:24:40.304Z,70.81
2022-08-26T04:27:08.627Z,70.99
2022-08-26T04:29:37.650Z,70.28
2022-08-26T04:32:06.985Z,70.46
2022-08-26T04:34:35.491Z,70.64
2022-08-26T04:37:05.915Z,71.00
2022-08-26T04:39:34.428Z,70.54
2022-08-26T04:42:06.031Z,71.01
2022-08-26T04:44:37.622Z,71.30
2022-08-26T04:47:06.675Z,71.64
2022-08-26T04:49:37.204Z,71.42
2022-08-26T04:52:07.064Z,72.12
2022-08-26T04:54:35.916Z,71.67
2022-08-26T04:57:06.304Z,71.05
2022-08-26T04:59:39.299Z,71.61
2022-08-26T05:02:08.090Z,71.99
2022-08-26T05:04:37.457Z,72.19
2022-08-26T05:07:08.121Z,72.32
2022-08-26T05:09:41.586Z,71.90
2022-08-26T05:12:12.130Z,71.62
2022-08-26T05:14:41.586Z,71.78
2022-08-26T05:17:09.593Z,71.83
2022-08-26T05:19:43.193Z,71.73
2022-08-26T05:22:13.201Z,71.55
2022-08-26T05:24:42.089Z,71.39
2022-08-26T05:27:12.596Z,71.43
2022-08-26T05:29:41.037Z,70.95
2022-08-26T05:32:08.975Z,71.01
2022-08-26T05:34:39.548Z,71.24
2022-08-26T05:37:11.163Z,71.31
2022-08-26T05:39:43.450Z,71.69
2022-08-26T05:43:38.446Z,71.90
2022-08-26T05:46:08.816Z,72.12
2022-08-26T05:48:37.056Z,71.89
2022-08-26T05:51:08.142Z,71.38
2022-08-26T05:53:37.828Z,70.69
2022-08-26T05:56:08.206Z,69.55
2022-08-26T05:58:42.030Z,69.14
2022-08-26T06:01:16.170Z,68.13
2022-08-26T06:03:46.682Z,67.50
2022-08-26T06:06:20.793Z,66.47
2022-08-26T06:08:57.550Z,65.68
2022-08-26T06:11:32.308Z,65.21
2022-08-26T06:14:04.374Z,64.16
2022-08-26T06:16:34.735Z,63.42
2022-08-26T06:19:10.917Z,62.86
2022-08-26T06:21:41.589Z,61.53
2022-08-26T06:24:29.168Z,61.39
2022-08-26T06:27:01.380Z,59.60
2022-08-26T06:29:33.145Z,58.21
2022-08-26T06:32:02.675Z,56.18
2022-08-26T06:34:33.858Z,53.92
2022-08-26T06:37:03.534Z,51.84
2022-08-26T06:39:36.512Z,49.98
2022-08-26T06:42:09.512Z,48.82
2022-08-26T06:44:41.686Z,46.42
2022-08-26T06:47:12.728Z,46.93
2022-08-26T06:49:42.127Z,45.32
2022-08-26T06:52:12.696Z,44.40
2022-08-26T06:54:43.077Z,44.80
2022-08-26T06:57:14.262Z,42.90
2022-08-26T06:59:46.212Z,42.76
2022-08-26T07:02:16.683Z,43.01
2022-08-26T07:04:47.777Z,41.81
2022-08-26T07:07:16.703Z,41.17
2022-08-26T07:09:45.927Z,39.27
2022-08-26T07:12:14.108Z,38.57
2022-08-26T07:14:43.778Z,38.89
2022-08-26T07:17:20.459Z,37.99
2022-08-26T07:19:48.994Z,37.69
2022-08-26T07:22:20.455Z,37.33
2022-08-26T07:24:49.326Z,35.89
2022-08-26T07:27:22.311Z,36.51
2022-08-26T07:29:50.750Z,37.58
2022-08-26T07:32:22.936Z,39.63
2022-08-26T07:34:52.254Z,40.94
2022-08-26T07:37:20.471Z,44.30
2022-08-26T07:39:48.640Z,45.62
2022-08-26T07:42:22.810Z,47.09
2022-08-26T07:44:54.470Z,47.26
2022-08-26T07:47:25.613Z,48.51
2022-08-26T07:49:58.084Z,47.10
2022-08-26T07:52:30.928Z,46.05
2022-08-26T07:55:01.280Z,44.87
2022-08-26T07:57:31.115Z,42.56
2022-08-26T08:00:02.163Z,43.00
2022-08-26T08:02:41.617Z,42.31
2022-08-26T08:05:09.893Z,42.57
2022-08-26T08:07:45.381Z,43.15
2022-08-26T08:10:20.764Z,42.93
2022-08-26T08:12:50.322Z,43.97
2022-08-26T08:15:21.133Z,44.37
2022-08-26T08:17:51.697Z,41.73
2022-08-26T08:20:20.835Z,39.28
2022-08-26T08:22:49.142Z,36.57
2022-08-26T08:25:20.241Z,35.42
2022-08-26T08:27:48.646Z,33.87
2022-08-26T08:30:22.910Z,32.35
2022-08-26T08:32:55.883Z,32.17
2022-08-26T08:35:26.473Z,30.83
2022-08-26T08:37:56.518Z,29.43
2022-08-26T08:40:29.349Z,28.58
2022-08-26T08:43:00.650Z,29.58
2022-08-26T08:45:37.002Z,29.80
2022-08-26T08:48:19.298Z,29.66
2022-08-26T08:50:51.699Z,30.64
2022-08-26T08:53:26.399Z,30.83
2022-08-26T08:56:03.425Z,30.10
2022-08-26T08:58:45.829Z,29.51
2022-08-26T09:01:25.997Z,29.42
2022-08-26T09:04:12.676Z,29.70
2022-08-26T09:06:48.194Z,29.61
2022-08-26T09:09:24.957Z,29.18
2022-08-26T09:11:54.404Z,30.05
2022-08-26T09:14:22.876Z,30.14
2022-08-26T09:17:03.467Z,31.92
2022-08-26T09:19:41.390Z,34.10
2022-08-26T09:22:10.085Z,35.70
2022-08-26T09:24:41.938Z,35.50
2022-08-26T09:27:37.627Z,34.68
2022-08-26T09:30:07.629Z,32.61
2022-08-26T09:32:40.217Z,30.95
2022-08-26T09:35:24.284Z,30.33
2022-08-26T09:37:53.100Z,32.39
2022-08-26T09:40:30.708Z,32.06
2022-08-26T09:43:13.569Z,30.90
2022-08-26T09:45:50.116Z,30.67
2022-08-26T09:48:28.804Z,31.51
2022-08-26T09:51:05.604Z,32.22
2022-08-26T09:53:37.717Z,33.02
2022-08-26T09:56:15.441Z,34.14
2022-08-26T09:58:47.275Z,33.54
2022-08-26T10:01:30.409Z,31.71
2022-08-26T10:04:08.753Z,30.95
2022-08-26T10:06:43.638Z,31.46
2022-08-26T10:09:19.486Z,29.88
2022-08-26T10:11:51.953Z,30.10
2022-08-26T10:14:26.136Z,28.58
2022-08-26T10:16:58.244Z,27.97
2022-08-26T10:19:56.013Z,27.23
2022-08-26T10:22:30.019Z,30.17
2022-08-26T10:25:03.386Z,31.01
2022-08-26T10:27:51.101Z,31.81
2022-08-26T10:30:25.274Z,32.33
2022-08-26T10:32:58.513Z,29.25
2022-08-26T10:35:27.447Z,30.52
2022-08-26T10:38:04.367Z,30.82
2022-08-26T10:40:43.868Z,30.99
2022-08-26T10:44:41.456Z,32.35
2022-08-26T10:47:19.388Z,33.94
2022-08-26T10:49:51.861Z,33.07
2022-08-26T10:52:29.974Z,34.18
2022-08-26T10:55:05.268Z,35.19
2022-08-26T10:57:44.720Z,34.84
2022-08-26T11:00:50.165Z,35.42
2022-08-26T11:03:33.106Z,33.63
2022-08-26T11:06:23.343Z,34.37
2022-08-26T11:08:52.490Z,33.20
2022-08-26T11:11:47.201Z,31.43
2022-08-26T11:14:41.096Z,30.77
2022-08-26T11:17:57.958Z,29.26
2022-08-26T11:20:36.646Z,28.98
2022-08-26T11:23:50.487Z,29.25
2022-08-26T11:26:36.195Z,28.73
2022-08-26T11:29:13.548Z,27.50
2022-08-26T11:31:57.724Z,28.98
2022-08-26T11:34:56.387Z,29.61
2022-08-26T11:37:33.082Z,28.71
2022-08-26T11:40:02.947Z,27.14
2022-08-26T11:42:42.699Z,27.91
2022-08-26T11:45:23.587Z,28.85
2022-08-26T11:47:52.237Z,28.17
2022-08-26T11:50:26.900Z,29.08
2022-08-26T11:53:01.574Z,29.28
2022-08-26T11:55:33.583Z,30.14
2022-08-26T11:58:04.658Z,30.34
2022-08-26T12:00:36.052Z,29.79
2022-08-26T12:03:09.188Z,29.38
2022-08-26T12:05:45.538Z,29.89
2022-08-26T12:08:17.439Z,31.21
2022-08-26T12:10:48.225Z,31.76
2022-08-26T12:13:26.253Z,31.58
2022-08-26T12:15:56.367Z,31.19
2022-08-26T12:18:29.581Z,32.49
2022-08-26T12:21:02.518Z,31.20
2022-08-26T12:23:47.258Z,32.44
2022-08-26T12:26:23.407Z,33.86
2022-08-26T12:28:56.067Z,34.58
2022-08-26T12:31:32.471Z,34.83
2022-08-26T12:34:03.052Z,35.08
2022-08-26T12:36:36.232Z,35.83
2022-08-26T12:39:09.364Z,35.78
2022-08-26T12:41:50.088Z,36.37
2022-08-26T12:44:53.103Z,36.39
2022-08-26T12:47:40.074Z,36.53
2022-08-26T12:50:17.691Z,37.20
2022-08-26T12:52:57.944Z,38.29
2022-08-26T12:55:39.534Z,37.59
2022-08-26T12:58:26.328Z,37.31
2022-08-26T13:00:56.600Z,37.19
2022-08-26T13:03:38.298Z,36.68
2022-08-26T13:06:27.822Z,38.19
2022-08-26T13:08:59.179Z,39.41
2022-08-26T13:11:29.858Z,39.21
2022-08-26T13:14:00.332Z,37.78
2022-08-26T13:16:30.479Z,36.73
2022-08-26T13:19:00.643Z,37.54
2022-08-26T13:21:32.052Z,37.45
2022-08-26T13:24:12.093Z,36.76
2022-08-26T13:26:44.779Z,36.61
2022-08-26T13:29:13.535Z,36.64
2022-08-26T13:31:44.401Z,36.33
2022-08-26T13:34:18.059Z,36.28
2022-08-26T13:36:46.536Z,37.14
2022-08-26T13:39:16.028Z,36.87
2022-08-26T13:41:44.389Z,36.22
2022-08-26T13:44:13.505Z,36.63
2022-08-26T13:49:12.995Z,35.85
2022-08-26T13:51:41.680Z,35.43
2022-08-26T13:54:09.901Z,35.98
2022-08-26T13:56:39.244Z,36.85
2022-08-26T13:59:07.716Z,36.16
2022-08-26T14:01:37.124Z,35.50
2022-08-26T14:04:05.293Z,36.10
2022-08-26T14:06:33.495Z,36.40
2022-08-26T14:09:01.616Z,36.37
2022-08-26T14:11:30.178Z,37.05
2022-08-26T14:14:16.322Z,36.01
2022-08-26T14:16:58.909Z,36.73
2022-08-26T14:19:30.714Z,35.88
2022-08-26T14:22:03.490Z,38.46
2022-08-26T14:24:33.882Z,38.83
2022-08-26T14:27:01.811Z,38.91
2022-08-26T14:29:31.106Z,38.71
2022-08-26T14:32:11.585Z,38.54
2022-08-26T14:34:42.663Z,38.16
2022-08-26T14:37:15.398Z,37.04
2022-08-26T14:39:43.759Z,37.15
2022-08-26T14:42:15.111Z,36.38
2022-08-26T14:44:48.630Z,36.94
2022-08-26T14:47:16.867Z,37.11
2022-08-26T14:49:47.319Z,36.57
2022-08-26T14:52:15.402Z,36.40
2022-08-26T14:54:44.771Z,36.91
2022-08-26T14:57:14.657Z,37.66
2022-08-26T14:59:45.517Z,37.84
2022-08-26T15:02:33.450Z,37.79
2022-08-26T15:05:05.133Z,38.82
2022-08-26T15:07:33.131Z,39.50
2022-08-26T15:10:01.138Z,40.17
2022-08-26T15:12:29.243Z,40.20
2022-08-26T15:14:57.202Z,40.44
2022-08-26T15:17:26.945Z,40.40
2022-08-26T15:19:55.079Z,40.70
2022-08-26T15:22:23.005Z,41.24
2022-08-26T15:24:53.581Z,41.50
2022-08-26T15:27:22.110Z,41.63
2022-08-26T15:29:50.042Z,42.29
2022-08-26T15:32:18.248Z,43.94
2022-08-26T15:34:47.698Z,45.39
2022-08-26T15:37:15.866Z,46.24
2022-08-26T15:39:44.210Z,46.93
2022-08-26T15:45:37.008Z,50.68
2022-08-26T15:48:05.607Z,52.03
2022-08-26T15:50:33.593Z,53.58
2022-08-26T15:53:01.985Z,54.22
2022-08-26T15:55:29.899Z,55.14
2022-08-26T15:57:58.010Z,55.21
2022-08-26T16:00:28.503Z,55.74
2022-08-26T16:02:57.977Z,56.76
2022-08-26T16:05:26.133Z,58.11
2022-08-26T16:07:58.937Z,57.67
2022-08-26T16:10:29.036Z,56.66
2022-08-26T16:12:57.050Z,56.80
2022-08-26T16:15:28.510Z,57.25
2022-08-26T16:18:01.933Z,57.07
2022-08-26T16:20:31.268Z,57.39
2022-08-26T16:23:03.104Z,57.01
2022-08-26T16:25:32.111Z,56.54
2022-08-26T16:28:00.055Z,57.30
2022-08-26T16:30:28.506Z,56.99
2022-08-26T16:32:58.981Z,56.48
2022-08-26T16:35:30.630Z,56.93
2022-08-26T16:37:58.858Z,57.33
2022-08-26T16:40:26.884Z,57.35
2022-08-26T16:42:55.659Z,57.31
2022-08-26T16:45:24.633Z,57.49
2022-08-26T16:47:52.796Z,58.24
2022-08-26T16:50:22.272Z,57.89
2022-08-26T16:52:55.779Z,57.97
2022-08-26T16:55:24.521Z,58.32
2022-08-26T16:57:53.354Z,59.11
2022-08-26T17:00:26.141Z,59.56
2022-08-26T17:02:54.415Z,59.73
2022-08-26T17:05:24.915Z,59.75
2022-08-26T17:07:55.436Z,60.36
2022-08-26T17:10:28.974Z,60.71
2022-08-26T17:12:57.864Z,61.19
2022-08-26T17:15:28.978Z,61.41
2022-08-26T17:17:57.762Z,61.82
2022-08-26T17:20:26.824Z,62.30
2022-08-26T17:22:57.030Z,63.08
2022-08-26T17:25:27.226Z,63.14
2022-08-26T17:30:25.862Z,63.20
2022-08-26T17:32:55.109Z,63.69
2022-08-26T17:35:24.052Z,64.03
2022-08-26T17:37:53.130Z,64.26
2022-08-26T17:40:27.016Z,65.01
2022-08-26T17:42:58.790Z,65.04
2022-08-26T17:45:29.214Z,65.24
2022-08-26T17:47:57.640Z,65.69
2022-08-26T17:50:28.143Z,66.04
2022-08-26T17:52:56.579Z,66.17
2022-08-26T17:55:26.040Z,66.31
2022-08-26T17:57:54.395Z,66.75
2022-08-26T18:00:26.607Z,66.97
2022-08-26T18:02:57.130Z,67.45
2022-08-26T18:05:25.878Z,67.72
2022-08-26T18:07:53.964Z,67.96
2022-08-26T18:10:22.550Z,68.40
2022-08-26T18:12:52.011Z,68.83
2022-08-26T18:15:21.247Z,68.89
2022-08-26T18:17:51.742Z,69.13
2022-08-26T18:20:20.862Z,69.14
2022-08-26T18:22:49.598Z,69.25
2022-08-26T18:25:19.060Z,69.80
2022-08-26T18:27:47.178Z,70.03
2022-08-26T18:30:21.612Z,70.87
2022-08-26T18:32:52.656Z,71.10
2022-08-26T18:35:21.920Z,71.43
2022-08-26T18:37:50.067Z,72.12
2022-08-26T18:40:18.353Z,72.75
2022-08-26T18:42:47.033Z,72.84
2022-08-26T18:45:23.496Z,72.89
2022-08-26T18:47:54.077Z,72.97
2022-08-26T18:50:22.309Z,73.43
2022-08-26T18:52:50.451Z,73.41
2022-08-26T18:55:20.735Z,73.63
2022-08-26T18:57:49.498Z,73.87
2022-08-26T19:00:18.252Z,73.93
2022-08-26T19:02:51.664Z,74.20
2022-08-26T19:05:22.426Z,74.07
2022-08-26T19:07:52.567Z,74.51
2022-08-26T19:10:20.876Z,74.38
2022-08-26T19:12:55.362Z,74.60
2022-08-26T19:15:29.408Z,75.08
2022-08-26T19:17:59.122Z,74.99
2022-08-26T19:20:27.219Z,74.84
2022-08-26T19:22:57.443Z,75.33
2022-08-26T19:25:28.004Z,75.17
2022-08-26T19:27:58.883Z,75.24
2022-08-26T19:30:28.027Z,75.37
2022-08-26T19:33:02.286Z,75.70
2022-08-26T19:35:33.445Z,75.90
2022-08-26T19:38:01.880Z,75.92
2022-08-26T19:40:30.536Z,75.91
2022-08-26T19:42:58.802Z,76.22
2022-08-26T19:45:27.154Z,76.58
2022-08-26T19:47:55.297Z,76.58
2022-08-26T19:50:27.862Z,76.37
2022-08-26T19:52:58.772Z,76.59
2022-08-26T19:55:30.313Z,76.88
2022-08-26T19:57:58.469Z,76.73
2022-08-26T20:00:28.874Z,76.64
2022-08-26T20:02:57.594Z,76.84
2022-08-26T20:05:28.247Z,76.40
2022-08-26T20:07:56.557Z,76.74
2022-08-26T20:10:25.042Z,76.49
2022-08-26T20:12:53.384Z,76.63
2022-08-26T20:15:26.060Z,77.17
2022-08-26T20:17:58.949Z,76.16
2022-08-26T20:20:45.625Z,76.56
2022-08-26T20:23:16.918Z,76.70
2022-08-26T20:25:46.588Z,76.82
2022-08-26T20:28:14.681Z,76.71
2022-08-26T20:30:42.764Z,77.17
2022-08-26T20:33:10.893Z,77.29
2022-08-26T20:35:40.216Z,77.72
2022-08-26T20:38:10.952Z,77.89
2022-08-26T20:40:42.135Z,78.14
2022-08-26T20:46:37.578Z,78.41
2022-08-26T20:49:07.491Z,79.02
2022-08-26T20:51:37.402Z,78.37
2022-08-26T20:54:06.291Z,78.01
2022-08-26T20:56:37.229Z,78.57
2022-08-26T20:59:07.780Z,78.71
2022-08-26T21:01:42.396Z,78.95
2022-08-26T21:04:13.844Z,79.49
2022-08-26T21:06:49.018Z,79.04
2022-08-26T21:09:24.661Z,79.21
2022-08-26T21:11:53.573Z,80.15
2022-08-26T21:14:23.211Z,80.96
2022-08-26T21:16:55.687Z,81.49
2022-08-26T21:19:23.858Z,82.00
2022-08-26T21:21:52.084Z,81.82
2022-08-26T21:24:22.567Z,82.43
2022-08-26T21:26:50.800Z,82.04
2022-08-26T21:29:19.006Z,82.38
2022-08-26T21:31:47.202Z,82.00
2022-08-26T21:34:18.374Z,82.21
2022-08-26T21:36:49.767Z,82.33
2022-08-26T21:39:18.034Z,82.30
2022-08-26T21:41:47.284Z,81.73
2022-08-26T21:44:16.915Z,82.26
2022-08-26T21:46:46.625Z,82.30
2022-08-26T21:49:18.596Z,82.31
2022-08-26T21:51:49.623Z,82.29
2022-08-26T21:54:19.160Z,82.54
2022-08-26T21:56:48.532Z,82.47
2022-08-26T21:59:19.195Z,82.33
2022-08-26T22:01:47.458Z,81.90
2022-08-26T22:04:16.680Z,82.36
2022-08-26T22:06:47.987Z,82.41
2022-08-26T22:09:22.011Z,83.01
2022-08-26T22:11:50.501Z,82.87
2022-08-26T22:14:24.592Z,82.61
2022-08-26T22:16:55.269Z,83.44
2022-08-26T22:19:25.600Z,83.76
2022-08-26T22:21:56.492Z,84.13
2022-08-26T22:24:27.114Z,83.83
2022-08-26T22:26:59.667Z,83.45
2022-08-26T22:29:27.797Z,84.40
2022-08-26T22:31:57.263Z,84.86
2022-08-26T22:34:28.555Z,85.13
2022-08-26T22:36:57.895Z,85.88
2022-08-26T22:39:27.114Z,87.11
2022-08-26T22:41:56.876Z,87.69
2022-08-26T22:44:24.958Z,87.80
2022-08-26T22:46:55.096Z,88.00
2022-08-26T22:49:24.377Z,88.27
2022-08-26T22:51:52.445Z,89.12
2022-08-26T22:54:21.912Z,88.66
2022-08-26T22:56:49.945Z,89.62
2022-08-26T22:59:22.793Z,90.15
2022-08-26T23:01:51.394Z,90.43
2022-08-26T23:04:19.734Z,91.04
2022-08-26T23:06:48.073Z,91.43
2022-08-26T23:09:18.004Z,91.56
2022-08-26T23:11:48.599Z,91.45
2022-08-26T23:14:19.918Z,91.90
2022-08-26T23:16:51.693Z,92.29
2022-08-26T23:19:22.120Z,91.97
2022-08-26T23:21:53.071Z,92.17
2022-08-26T23:24:23.446Z,92.62
2022-08-26T23:26:52.996Z,92.71
2022-08-26T23:29:21.097Z,92.48
2022-08-26T23:31:49.117Z,93.45
2022-08-26T23:34:34.735Z,95.51
2022-08-26T23:37:04.842Z,97.63
2022-08-26T23:39:37.644Z,98.31
2022-08-26T23:42:08.125Z,99.50
2022-08-26T23:44:36.079Z,100.00
2022-08-26T23:47:04.924Z,100.00
2022-08-26T23:49:33.764Z,100.00
2022-08-26T23:52:19.353Z,100.00
2022-08-26T23:54:48.600Z,100.00
2022-08-26T23:57:22.860Z,100.00
2022-08-26T23:59:51.161Z,100.00
